Time;durP1;ratioP1;P1;durP2;ratioP2;P2;SDS_P1;SDS_P2;PMS_P1;PMS_P2;Temp;Humidity;BMP_temperature;BMP_pressure;BME280_temperature;BME280_humidity;BME280_pressure;Samples;Min_cycle;Max_cycle;Signal;HPM_P1;HPM_P2
2021/03/15 00:01:30;;;;;;;18.08;10.30;;;3.50;90.90;;;;;;5009214;28;20513;-87
2021/03/15 00:03:56;;;;;;;16.70;8.93;;;3.40;91.10;;;;;;5012321;28;20033;-88
2021/03/15 00:06:21;;;;;;;17.55;8.80;;;3.30;91.00;;;;;;5013314;28;20287;-86
2021/03/15 00:08:47;;;;;;;14.40;8.82;;;3.30;91.00;;;;;;5007669;28;20034;-86
2021/03/15 00:11:12;;;;;;;15.55;8.70;;;3.20;91.00;;;;;;5012310;28;20029;-87
2021/03/15 00:13:38;;;;;;;14.80;8.55;;;3.20;90.90;;;;;;5008780;28;20033;-87
2021/03/15 00:16:04;;;;;;;17.98;9.45;;;3.10;91.20;;;;;;5007928;28;20065;-84
2021/03/15 00:18:30;;;;;;;19.88;10.80;;;3.10;91.40;;;;;;5013196;28;20026;-85
2021/03/15 00:20:56;;;;;;;15.60;8.90;;;3.10;91.30;;;;;;5013806;28;20030;-84
2021/03/15 00:23:22;;;;;;;16.45;9.70;;;3.00;91.20;;;;;;5008656;28;20371;-87
2021/03/15 00:25:47;;;;;;;15.27;9.02;;;2.90;91.00;;;;;;5013483;28;20026;-85
2021/03/15 00:28:13;;;;;;;15.02;9.52;;;2.80;90.90;;;;;;5008851;28;20026;-86
2021/03/15 00:30:39;;;;;;;16.15;9.35;;;2.70;90.80;;;;;;4994459;28;20046;-86
2021/03/15 00:33:05;;;;;;;15.85;9.52;;;2.60;90.80;;;;;;5010766;28;20101;-86
2021/03/15 00:35:31;;;;;;;16.15;9.32;;;2.50;90.70;;;;;;5011862;28;20132;-86
2021/03/15 00:37:57;;;;;;;20.52;10.43;;;2.50;90.80;;;;;;5011883;28;20025;-87
2021/03/15 00:40:24;;;;;;;15.40;9.80;;;2.40;90.90;;;;;;5008948;28;20404;-86
2021/03/15 00:42:52;;;;;;;14.43;8.70;;;2.50;91.20;;;;;;5010165;28;20033;-86
2021/03/15 00:45:20;;;;;;;15.90;9.07;;;2.40;90.90;;;;;;5010992;28;20514;-87
2021/03/15 00:47:46;;;;;;;15.10;7.75;;;2.40;90.70;;;;;;5010961;28;20466;-87
2021/03/15 00:50:23;;;;;;;16.98;8.93;;;2.30;90.50;;;;;;5007369;28;20112;-86
2021/03/15 00:52:49;;;;;;;14.25;8.63;;;2.30;90.30;;;;;;5009072;28;20051;-88
2021/03/15 00:55:15;;;;;;;16.85;8.18;;;2.30;90.10;;;;;;5011226;28;20481;-86
2021/03/15 00:57:40;;;;;;;14.45;8.60;;;2.20;90.00;;;;;;5011724;28;20030;-86
2021/03/15 01:00:07;;;;;;;18.85;9.10;;;2.10;90.20;;;;;;4995122;28;20160;-87
2021/03/15 01:02:34;;;;;;;14.15;8.10;;;2.00;90.30;;;;;;4991740;28;20501;-86
2021/03/15 01:04:59;;;;;;;13.65;7.97;;;2.00;90.40;;;;;;5008569;28;20024;-86
2021/03/15 01:07:25;;;;;;;12.73;8.23;;;2.00;90.20;;;;;;5009200;28;20034;-87
2021/03/15 01:09:51;;;;;;;13.80;8.68;;;2.00;90.10;;;;;;5009441;28;20419;-86
2021/03/15 01:12:16;;;;;;;14.38;7.75;;;2.10;89.70;;;;;;5010811;28;20038;-86
2021/03/15 01:14:42;;;;;;;13.35;8.25;;;2.00;88.80;;;;;;5009129;28;20028;-86
2021/03/15 01:17:11;;;;;;;14.30;8.35;;;2.00;88.60;;;;;;4990520;28;20437;-86
2021/03/15 01:19:37;;;;;;;15.73;9.13;;;1.90;89.40;;;;;;5008335;28;20026;-86
2021/03/15 01:22:03;;;;;;;17.13;9.68;;;1.80;89.50;;;;;;4993441;28;20386;-86
2021/03/15 01:24:28;;;;;;;21.40;10.68;;;1.80;90.10;;;;;;5011297;28;20473;-86
2021/03/15 01:26:54;;;;;;;20.20;10.00;;;1.60;89.70;;;;;;5011039;28;20021;-87
2021/03/15 01:29:20;;;;;;;17.85;10.20;;;1.60;89.90;;;;;;5008264;28;20029;-87
2021/03/15 01:31:45;;;;;;;15.07;9.32;;;1.50;89.90;;;;;;5008126;28;20079;-86
2021/03/15 01:34:11;;;;;;;15.73;8.75;;;1.40;90.00;;;;;;5007546;28;20042;-86
2021/03/15 01:36:36;;;;;;;16.88;9.00;;;1.30;90.10;;;;;;5010704;28;20029;-86
2021/03/15 01:39:04;;;;;;;15.23;9.40;;;1.20;90.00;;;;;;5010342;28;20046;-86
2021/03/15 01:41:30;;;;;;;17.80;10.60;;;1.20;90.00;;;;;;5011458;28;20064;-86
2021/03/15 01:43:57;;;;;;;20.15;10.05;;;1.10;90.10;;;;;;5008410;28;20029;-86
2021/03/15 01:46:22;;;;;;;17.85;10.10;;;1.10;90.40;;;;;;4993223;28;20064;-87
2021/03/15 01:48:49;;;;;;;16.10;10.38;;;1.20;89.80;;;;;;5010990;28;20062;-87
2021/03/15 01:51:15;;;;;;;19.90;10.98;;;1.10;89.80;;;;;;5011020;28;20486;-86
2021/03/15 01:53:42;;;;;;;17.52;9.60;;;1.00;90.20;;;;;;5008398;28;20525;-86
2021/03/15 01:56:09;;;;;;;20.42;9.55;;;0.90;90.20;;;;;;5010745;28;20041;-86
2021/03/15 01:58:35;;;;;;;17.05;9.55;;;0.90;90.50;;;;;;5011003;28;20018;-86
2021/03/15 02:01:01;;;;;;;17.60;10.85;;;0.90;90.50;;;;;;5010789;28;20079;-84
2021/03/15 02:03:27;;;;;;;20.40;11.05;;;0.90;90.50;;;;;;5011049;28;20489;-86
2021/03/15 02:05:53;;;;;;;23.52;11.90;;;0.90;91.50;;;;;;5011302;28;20405;-86
2021/03/15 02:08:19;;;;;;;21.63;12.27;;;0.90;91.80;;;;;;5012875;28;20018;-86
2021/03/15 02:10:45;;;;;;;23.10;11.95;;;0.90;92.10;;;;;;5014369;28;20053;-87
2021/03/15 02:13:20;;;;;;;21.48;12.38;;;0.90;92.10;;;;;;5014599;28;20111;-87
2021/03/15 02:16:00;;;;;;;20.00;11.00;;;1.00;92.20;;;;;;4996188;28;20084;-85
2021/03/15 02:18:29;;;;;;;21.40;12.10;;;1.00;92.30;;;;;;5015124;28;20057;-87
2021/03/15 02:21:31;;;;;;;23.33;12.32;;;1.00;92.40;;;;;;4998101;28;20453;-87
2021/03/15 02:24:24;;;;;;;19.67;11.52;;;1.00;92.20;;;;;;5014877;28;20470;-85
2021/03/15 02:26:58;;;;;;;19.42;11.60;;;0.90;92.10;;;;;;5014120;28;20490;-88
2021/03/15 02:29:43;;;;;;;22.38;12.23;;;0.90;92.20;;;;;;5016053;28;20036;-85
2021/03/15 02:32:34;;;;;;;21.05;12.30;;;0.90;92.40;;;;;;5010915;28;20409;-86
2021/03/15 02:35:10;;;;;;;19.67;11.30;;;0.90;92.30;;;;;;5011718;28;20046;-88
2021/03/15 02:37:44;;;;;;;21.40;11.57;;;0.80;92.30;;;;;;5008529;28;20025;-85
2021/03/15 02:40:30;;;;;;;19.55;11.60;;;0.70;91.80;;;;;;5011377;28;20026;-86
2021/03/15 02:43:00;;;;;;;16.10;10.70;;;0.70;91.60;;;;;;5011693;28;20030;-85
2021/03/15 02:45:27;;;;;;;17.48;10.63;;;0.70;91.70;;;;;;5013934;28;20159;-86
2021/03/15 02:47:53;;;;;;;18.27;11.35;;;0.70;91.60;;;;;;5010784;28;20125;-87
2021/03/15 02:50:22;;;;;;;18.75;10.32;;;0.60;91.20;;;;;;5014247;28;20018;-87
2021/03/15 02:52:52;;;;;;;20.77;11.00;;;0.60;91.40;;;;;;5015071;28;20045;-87
2021/03/15 02:55:22;;;;;;;22.83;12.50;;;0.60;91.30;;;;;;5010801;28;20057;-88
2021/03/15 02:57:49;;;;;;;18.90;10.47;;;0.70;91.30;;;;;;5014146;28;20076;-87
2021/03/15 03:00:16;;;;;;;18.88;11.77;;;0.70;91.50;;;;;;5014367;28;20265;-87
2021/03/15 03:02:44;;;;;;;16.73;10.30;;;0.80;91.80;;;;;;5014869;28;20030;-87
2021/03/15 03:05:11;;;;;;;21.20;11.25;;;0.90;92.00;;;;;;5011055;28;20105;-87
2021/03/15 03:07:41;;;;;;;18.85;11.55;;;1.00;92.10;;;;;;5010762;28;20030;-87
2021/03/15 03:10:09;;;;;;;21.17;11.05;;;1.10;92.20;;;;;;5010585;28;20021;-85
2021/03/15 03:12:38;;;;;;;17.92;10.98;;;1.20;92.00;;;;;;4996814;28;20026;-85
2021/03/15 03:15:06;;;;;;;18.48;11.32;;;1.20;92.00;;;;;;5014037;28;20034;-86
2021/03/15 03:17:37;;;;;;;19.90;11.07;;;1.30;92.00;;;;;;5010593;28;20037;-87
2021/03/15 03:20:07;;;;;;;18.52;10.32;;;1.30;92.00;;;;;;5012344;28;20486;-86
2021/03/15 03:22:35;;;;;;;19.58;12.35;;;1.30;92.10;;;;;;5013104;28;20038;-87
2021/03/15 03:25:02;;;;;;;22.17;11.73;;;1.30;92.20;;;;;;4992263;28;20390;-86
2021/03/15 03:27:27;;;;;;;17.30;10.18;;;1.40;92.40;;;;;;4994857;28;20030;-86
2021/03/15 03:29:53;;;;;;;21.23;11.63;;;1.30;92.30;;;;;;5013234;28;20118;-87
2021/03/15 03:32:20;;;;;;;19.77;11.18;;;1.40;92.40;;;;;;5010208;28;20024;-86
2021/03/15 03:34:46;;;;;;;16.38;10.63;;;1.40;92.40;;;;;;4992791;28;20041;-88
2021/03/15 03:37:12;;;;;;;18.35;11.27;;;1.40;92.30;;;;;;4995666;28;20065;-86
2021/03/15 03:39:38;;;;;;;18.48;11.85;;;1.50;92.20;;;;;;5012325;28;20069;-86
2021/03/15 03:42:04;;;;;;;20.33;12.15;;;1.50;92.10;;;;;;5009866;28;20049;-86
2021/03/15 03:44:30;;;;;;;20.60;11.85;;;1.50;92.10;;;;;;5013730;28;20026;-86
2021/03/15 03:46:55;;;;;;;21.10;12.27;;;1.60;92.30;;;;;;5010204;28;20079;-85
2021/03/15 03:49:21;;;;;;;18.08;12.23;;;1.70;92.20;;;;;;4992364;28;20107;-86
2021/03/15 03:51:54;;;;;;;23.75;12.70;;;1.70;92.20;;;;;;5011730;28;20064;-86
2021/03/15 03:54:26;;;;;;;19.88;12.50;;;1.70;92.20;;;;;;5012975;28;20108;-86
2021/03/15 03:57:01;;;;;;;21.83;12.45;;;1.60;92.00;;;;;;5013563;28;20164;-86
2021/03/15 03:59:31;;;;;;;23.60;13.07;;;1.50;91.90;;;;;;5012608;28;20061;-86
2021/03/15 04:02:00;;;;;;;21.17;12.02;;;1.40;92.10;;;;;;5017013;28;20128;-86
2021/03/15 04:04:30;;;;;;;19.83;12.30;;;1.40;91.80;;;;;;5009386;28;20092;-86
2021/03/15 04:06:56;;;;;;;;;;;1.20;91.60;;;;;;5010678;28;20034;-86
2021/03/15 04:09:43;;;;;;;21.80;12.18;;;1.10;91.90;;;;;;5010097;28;19917;-87
2021/03/15 04:12:12;;;;;;;20.80;12.05;;;1.00;91.70;;;;;;5011105;28;20107;-85
2021/03/15 04:14:45;;;;;;;18.98;11.07;;;1.00;92.00;;;;;;5013494;28;20022;-86
2021/03/15 04:17:15;;;;;;;17.95;11.45;;;0.90;92.20;;;;;;5012665;28;20053;-86
2021/03/15 04:20:05;;;;;;;19.02;11.70;;;0.90;92.00;;;;;;5009950;28;20022;-87
2021/03/15 04:22:36;;;;;;;23.57;12.10;;;0.90;91.80;;;;;;5002999;28;20037;-86
2021/03/15 04:25:03;;;;;;;20.35;11.77;;;0.90;91.40;;;;;;5009465;28;20528;-86
2021/03/15 04:27:31;;;;;;;19.00;10.48;;;0.80;91.30;;;;;;5012553;28;20048;-86
2021/03/15 04:29:58;;;;;;;19.85;11.43;;;0.70;91.60;;;;;;5012557;28;20018;-85
2021/03/15 04:32:26;;;;;;;17.70;11.07;;;0.70;91.70;;;;;;5012208;28;20141;-86
2021/03/15 04:34:53;;;;;;;21.27;12.90;;;0.80;91.50;;;;;;5009635;28;20069;-86
2021/03/15 04:37:19;;;;;;;21.95;13.05;;;0.80;91.10;;;;;;5009096;28;20034;-87
2021/03/15 04:39:46;;;;;;;21.08;12.30;;;0.70;91.40;;;;;;5012858;28;20022;-86
2021/03/15 04:42:12;;;;;;;24.33;14.07;;;0.70;91.50;;;;;;5012183;28;20065;-86
2021/03/15 04:44:38;;;;;;;24.00;12.63;;;0.70;91.70;;;;;;5012835;28;20076;-86
2021/03/15 04:47:05;;;;;;;25.83;12.68;;;0.60;91.70;;;;;;4994375;28;20381;-87
2021/03/15 04:49:32;;;;;;;19.05;12.30;;;0.60;91.60;;;;;;5009194;28;20028;-86
2021/03/15 04:51:58;;;;;;;18.00;11.90;;;0.50;91.10;;;;;;5008972;28;20105;-84
2021/03/15 04:54:24;;;;;;;23.13;12.15;;;0.50;91.20;;;;;;5011829;28;20034;-87
2021/03/15 04:56:52;;;;;;;21.33;10.95;;;0.50;91.10;;;;;;5012021;28;20112;-86
2021/03/15 04:59:19;;;;;;;25.17;14.05;;;0.50;90.90;;;;;;5011712;28;20076;-86
2021/03/15 05:01:47;;;;;;;23.33;13.30;;;0.50;91.10;;;;;;5007739;28;20072;-86
2021/03/15 05:04:16;;;;;;;22.80;12.18;;;0.50;91.20;;;;;;5008888;28;20076;-87
2021/03/15 05:06:43;;;;;;;18.92;11.43;;;0.50;90.80;;;;;;5010756;28;20018;-85
2021/03/15 05:09:12;;;;;;;18.65;11.35;;;0.50;90.80;;;;;;5012578;28;20018;-86
2021/03/15 05:11:40;;;;;;;21.70;12.57;;;0.50;90.80;;;;;;5011822;28;20550;-86
2021/03/15 05:14:06;;;;;;;22.35;12.60;;;0.50;90.90;;;;;;5011448;28;20018;-87
2021/03/15 05:16:37;;;;;;;20.25;12.13;;;0.50;91.00;;;;;;4990749;28;20045;-87
2021/03/15 05:19:06;;;;;;;21.98;12.75;;;0.50;91.10;;;;;;5009081;28;20026;-87
2021/03/15 05:21:33;;;;;;;22.85;11.63;;;0.60;91.00;;;;;;5005320;28;20034;-87
2021/03/15 05:23:59;;;;;;;22.77;13.65;;;0.70;90.90;;;;;;5009232;28;20026;-86
2021/03/15 05:26:25;;;;;;;23.15;13.40;;;0.70;90.80;;;;;;5010944;28;20033;-84
2021/03/15 05:28:52;;;;;;;24.00;13.98;;;0.80;91.10;;;;;;5008622;28;20014;-86
2021/03/15 05:31:19;;;;;;;20.98;13.57;;;0.80;91.60;;;;;;5008735;28;20038;-86
2021/03/15 05:33:46;;;;;;;26.05;15.35;;;0.90;91.80;;;;;;5011137;28;20034;-87
2021/03/15 05:36:14;;;;;;;26.13;14.43;;;1.20;91.60;;;;;;5011684;28;20097;-86
2021/03/15 05:38:40;;;;;;;23.73;14.38;;;1.30;91.40;;;;;;5011014;28;20018;-86
2021/03/15 05:41:11;;;;;;;26.45;15.25;;;1.50;91.40;;;;;;5010151;28;20042;-86
2021/03/15 05:44:15;;;;;;;26.52;16.27;;;1.70;91.40;;;;;;5011290;28;20109;-87
2021/03/15 05:47:29;;;;;;;24.40;15.18;;;1.90;91.30;;;;;;5011935;28;20470;-86
2021/03/15 05:50:19;;;;;;;26.45;15.20;;;2.00;91.30;;;;;;4927506;29;20518;-85
2021/03/15 05:53:14;;;;;;;27.92;16.58;;;2.20;91.40;;;;;;4922816;29;20079;-86
2021/03/15 05:55:54;;;;;;;28.70;16.27;;;2.40;91.00;;;;;;4932044;29;20110;-86
2021/03/15 05:58:22;;;;;;;44.65;17.38;;;2.50;91.30;;;;;;4930918;29;20028;-86
2021/03/15 06:01:31;;;;;;;30.73;16.63;;;2.60;91.00;;;;;;4929295;29;20460;-85
2021/03/15 06:04:21;;;;;;;31.90;17.85;;;2.60;91.10;;;;;;4927653;29;20159;-85
2021/03/15 06:06:48;;;;;;;33.75;19.35;;;2.70;91.20;;;;;;4930484;29;20063;-86
2021/03/15 06:09:19;;;;;;;32.75;19.30;;;2.70;91.10;;;;;;4931172;29;20039;-86
2021/03/15 06:11:45;;;;;;;34.33;18.80;;;2.70;91.10;;;;;;4930600;29;20171;-85
2021/03/15 06:14:13;;;;;;;29.15;18.02;;;2.70;91.20;;;;;;4918229;29;20035;-85
2021/03/15 06:16:42;;;;;;;34.70;20.17;;;2.80;91.30;;;;;;4931662;29;20032;-84
2021/03/15 06:19:08;;;;;;;34.20;19.88;;;2.80;91.10;;;;;;4931571;29;20036;-84
2021/03/15 06:21:37;;;;;;;34.40;18.58;;;2.90;91.20;;;;;;4916034;29;20032;-84
2021/03/15 06:24:04;;;;;;;37.20;19.55;;;2.80;91.20;;;;;;4932055;29;20028;-82
2021/03/15 06:26:30;;;;;;;39.38;19.70;;;2.90;91.30;;;;;;4976559;28;20062;-83
2021/03/15 06:29:04;;;;;;;37.70;19.58;;;2.90;91.20;;;;;;5006888;28;20013;-85
2021/03/15 06:31:33;;;;;;;34.13;18.52;;;2.90;91.10;;;;;;5003692;28;20027;-85
2021/03/15 06:34:00;;;;;;;34.20;20.33;;;3.00;91.10;;;;;;5002525;28;20034;-87
2021/03/15 06:36:27;;;;;;;32.38;19.38;;;3.00;91.20;;;;;;5013091;28;20164;-83
2021/03/15 06:38:55;;;;;;;31.83;18.67;;;3.00;91.00;;;;;;5011500;28;20105;-84
2021/03/15 06:41:23;;;;;;;33.97;17.20;;;3.00;90.90;;;;;;4989444;28;20528;-85
2021/03/15 06:43:50;;;;;;;32.05;18.75;;;3.10;91.10;;;;;;5010915;28;20109;-83
2021/03/15 06:46:16;;;;;;;33.40;19.45;;;3.20;91.00;;;;;;5006589;28;20110;-84
2021/03/15 06:48:42;;;;;;;28.67;18.58;;;3.20;90.90;;;;;;5010712;28;20371;-84
2021/03/15 06:51:08;;;;;;;37.13;19.65;;;3.20;90.90;;;;;;5011101;28;20026;-85
2021/03/15 06:53:42;;;;;;;32.03;18.73;;;3.30;90.90;;;;;;5010900;28;20061;-84
2021/03/15 06:56:16;;;;;;;33.25;19.88;;;3.30;90.80;;;;;;5010399;28;20029;-86
2021/03/15 06:58:50;;;;;;;30.75;17.98;;;3.40;90.80;;;;;;5010632;28;20025;-84
2021/03/15 07:01:17;;;;;;;29.23;18.02;;;3.40;90.60;;;;;;5010576;28;20394;-87
2021/03/15 07:03:44;;;;;;;27.10;17.77;;;3.50;90.50;;;;;;5003520;28;20033;-84
2021/03/15 07:06:11;;;;;;;37.47;20.35;;;3.50;90.50;;;;;;5000012;28;20025;-85
2021/03/15 07:08:37;;;;;;;28.85;17.75;;;3.60;90.50;;;;;;5010816;28;20069;-84
2021/03/15 07:11:03;;;;;;;29.70;19.35;;;3.70;90.20;;;;;;4995613;28;20524;-86
2021/03/15 07:13:39;;;;;;;32.35;19.75;;;3.70;90.40;;;;;;4993757;28;20022;-86
2021/03/15 07:16:05;;;;;;;32.85;19.73;;;3.90;90.30;;;;;;5014323;28;20499;-86
2021/03/15 07:18:35;;;;;;;35.58;20.73;;;4.10;90.20;;;;;;5013709;28;20114;-85
2021/03/15 07:21:04;;;;;;;33.40;18.90;;;4.10;90.00;;;;;;5011146;28;20087;-86
2021/03/15 07:23:39;;;;;;;34.55;19.17;;;4.30;89.50;;;;;;5014356;28;20057;-87
2021/03/15 07:26:14;;;;;;;30.17;20.00;;;4.40;88.80;;;;;;4992663;28;20034;-86
2021/03/15 07:28:44;;;;;;;35.63;19.55;;;4.50;88.60;;;;;;5010063;28;20037;-84
2021/03/15 07:31:19;;;;;;;32.33;20.65;;;4.60;88.50;;;;;;4995553;28;20029;-86
2021/03/15 07:33:46;;;;;;;33.67;19.77;;;4.60;87.80;;;;;;4998730;28;20081;-85
2021/03/15 07:36:12;;;;;;;36.60;22.33;;;4.60;88.10;;;;;;5009035;28;20058;-84
2021/03/15 07:38:38;;;;;;;36.80;21.60;;;4.60;88.50;;;;;;5006076;28;20032;-84
2021/03/15 07:41:20;;;;;;;33.50;20.60;;;4.60;88.80;;;;;;5010502;28;20026;-84
2021/03/15 07:43:47;;;;;;;35.45;22.15;;;4.60;88.60;;;;;;5006868;28;20787;-83
2021/03/15 07:46:21;;;;;;;38.50;22.33;;;4.50;89.40;;;;;;5012246;28;20481;-84
2021/03/15 07:48:47;;;;;;;38.42;22.15;;;4.50;88.90;;;;;;5011781;28;20486;-85
2021/03/15 07:51:12;;;;;;;39.88;22.25;;;4.60;89.40;;;;;;5012097;28;20024;-83
2021/03/15 07:53:42;;;;;;;41.28;23.33;;;4.60;88.80;;;;;;5001924;28;20064;-85
2021/03/15 07:56:10;;;;;;;43.00;23.63;;;4.60;89.50;;;;;;5005011;28;20523;-84
2021/03/15 07:58:38;;;;;;;38.72;22.88;;;4.70;89.20;;;;;;5012101;28;20076;-84
2021/03/15 08:01:05;;;;;;;40.47;23.63;;;4.70;89.40;;;;;;5011580;28;20049;-84
2021/03/15 08:03:31;;;;;;;42.60;24.85;;;4.60;89.00;;;;;;4996994;28;20511;-85
2021/03/15 08:05:59;;;;;;;36.60;23.20;;;4.60;89.20;;;;;;5012578;28;20057;-84
2021/03/15 08:08:25;;;;;;;44.78;25.33;;;4.60;89.80;;;;;;5006030;28;20079;-85
2021/03/15 08:10:52;;;;;;;41.55;23.83;;;4.70;89.60;;;;;;5007577;28;20017;-85
2021/03/15 08:13:21;;;;;;;43.05;25.23;;;4.80;89.50;;;;;;5010612;28;20092;-84
2021/03/15 08:15:49;;;;;;;46.63;24.40;;;4.90;89.50;;;;;;5009050;28;20389;-84
2021/03/15 08:18:23;;;;;;;49.95;25.50;;;4.80;89.20;;;;;;5009154;28;20022;-84
2021/03/15 08:20:56;;;;;;;43.70;23.35;;;4.90;89.10;;;;;;4992049;28;20136;-85
2021/03/15 08:23:24;;;;;;;46.88;23.45;;;4.80;89.80;;;;;;5006901;28;20029;-83
2021/03/15 08:25:52;;;;;;;38.47;23.40;;;4.90;89.00;;;;;;5010508;28;20048;-83
2021/03/15 08:28:19;;;;;;;38.95;23.25;;;4.90;89.50;;;;;;5007348;28;20026;-83
2021/03/15 08:31:00;;;;;;;44.50;24.15;;;5.00;89.40;;;;;;5009884;28;20021;-83
2021/03/15 08:33:26;;;;;;;38.80;22.88;;;4.90;89.00;;;;;;5008104;28;20037;-83
2021/03/15 08:35:55;;;;;;;36.50;23.98;;;4.90;89.30;;;;;;5007361;28;20021;-83
2021/03/15 08:38:34;;;;;;;40.55;21.02;;;4.90;88.90;;;;;;5004235;28;20040;-86
2021/03/15 08:41:11;;;;;;;36.22;21.35;;;5.00;88.40;;;;;;5007240;28;20119;-83
2021/03/15 08:43:41;;;;;;;40.80;22.75;;;5.00;88.60;;;;;;5007320;28;20056;-83
2021/03/15 08:46:13;;;;;;;37.38;22.08;;;5.00;88.40;;;;;;5006498;28;20034;-83
2021/03/15 08:48:39;;;;;;;43.40;23.33;;;5.00;88.80;;;;;;4984815;28;20389;-82
2021/03/15 08:51:15;;;;;;;38.08;24.00;;;5.00;89.00;;;;;;5007759;28;20032;-83
2021/03/15 08:53:42;;;;;;;39.65;23.85;;;5.10;88.60;;;;;;5009283;28;20018;-84
2021/03/15 08:56:12;;;;;;;39.30;23.13;;;5.10;89.20;;;;;;5003819;28;20034;-85
2021/03/15 08:58:43;;;;;;;37.35;20.85;;;5.10;88.90;;;;;;5007136;28;20080;-85
2021/03/15 09:01:16;;;;;;;41.67;22.88;;;5.10;88.70;;;;;;5003761;28;20029;-83
2021/03/15 09:03:51;;;;;;;38.67;21.35;;;5.20;88.80;;;;;;5005123;28;20026;-84
2021/03/15 09:09:05;;;;;;;42.28;23.75;;;5.20;88.90;;;;;;5010855;28;20030;-84
2021/03/15 09:11:37;;;;;;;40.00;22.55;;;5.30;88.80;;;;;;5007375;28;20025;-87
2021/03/15 09:14:21;;;;;;;42.20;24.55;;;5.30;88.60;;;;;;5009259;28;20029;-85
2021/03/15 09:16:58;;;;;;;38.28;23.10;;;5.30;88.40;;;;;;5011331;28;20058;-86
2021/03/15 09:19:35;;;;;;;42.08;23.88;;;5.30;88.30;;;;;;5007022;28;20034;-86
2021/03/15 09:22:05;;;;;;;38.72;22.70;;;5.40;88.80;;;;;;5009583;28;20030;-87
2021/03/15 09:24:45;;;;;;;33.50;20.90;;;5.50;87.70;;;;;;5009939;28;20044;-87
2021/03/15 09:27:27;;;;;;;37.38;23.35;;;5.60;87.60;;;;;;5007794;28;20022;-87
2021/03/15 09:30:39;;;;;;;41.67;23.60;;;5.70;87.10;;;;;;5011449;28;20109;-86
2021/03/15 09:33:05;;;;;;;36.72;21.33;;;5.80;87.20;;;;;;4986400;28;20038;-87
2021/03/15 09:35:40;;;;;;;41.40;23.63;;;6.00;86.60;;;;;;5010439;28;20053;-86
2021/03/15 09:38:11;;;;;;;41.92;23.05;;;6.20;86.20;;;;;;5007263;28;20037;-86
2021/03/15 09:40:57;;;;;;;;;;;6.40;85.80;;;;;;5001888;28;20152;-87
2021/03/15 09:43:24;;;;;;;32.72;19.77;;;6.60;84.40;;;;;;5008458;28;19910;-87
2021/03/15 09:46:04;;;;;;;32.10;20.33;;;6.80;83.80;;;;;;5008629;28;20025;-87
2021/03/15 09:48:32;;;;;;;30.27;19.80;;;6.90;82.70;;;;;;5009654;28;20026;-86
2021/03/15 09:51:00;;;;;;;29.85;21.05;;;6.90;81.50;;;;;;5010039;28;20053;-87
2021/03/15 09:53:29;;;;;;;28.20;19.27;;;7.00;82.00;;;;;;5004046;28;20038;-88
2021/03/15 09:56:10;;;;;;;32.90;18.80;;;6.80;81.30;;;;;;5008503;28;20129;-86
2021/03/15 09:58:39;;;;;;;27.92;18.42;;;6.70;80.60;;;;;;5000565;28;20014;-88
2021/03/15 10:01:18;;;;;;;30.10;18.67;;;6.80;81.20;;;;;;5008532;28;20044;-86
2021/03/15 10:03:54;;;;;;;26.88;18.25;;;7.00;81.60;;;;;;4996819;28;20560;-88
2021/03/15 10:06:23;;;;;;;28.35;17.95;;;7.00;80.50;;;;;;4987527;28;20053;-88
2021/03/15 10:08:50;;;;;;;29.10;17.40;;;7.10;80.50;;;;;;5008549;28;20041;-88
2021/03/15 10:11:16;;;;;;;28.27;16.75;;;7.10;80.30;;;;;;5001872;28;20019;-88
2021/03/15 10:13:42;;;;;;;24.63;17.27;;;7.30;79.50;;;;;;5004306;28;20026;-88
2021/03/15 10:16:08;;;;;;;28.75;15.45;;;7.50;79.70;;;;;;5010406;28;20030;-89
2021/03/15 10:18:34;;;;;;;23.48;15.40;;;7.60;78.90;;;;;;5008756;28;20030;-88
2021/03/15 10:21:00;;;;;;;22.33;14.25;;;7.90;78.00;;;;;;5005496;28;20084;-88
2021/03/15 10:23:31;;;;;;;19.65;14.00;;;7.90;77.80;;;;;;5008503;28;20072;-88
2021/03/15 10:26:03;;;;;;;22.30;14.63;;;8.00;77.60;;;;;;5009775;28;20021;-88
2021/03/15 10:28:30;;;;;;;24.70;15.23;;;8.00;75.60;;;;;;5014784;28;20029;-89
2021/03/15 10:30:56;;;;;;;23.65;16.92;;;8.20;76.80;;;;;;5012513;28;20026;-86
2021/03/15 10:33:23;;;;;;;19.30;13.90;;;8.40;76.70;;;;;;5013342;28;20026;-88
2021/03/15 10:35:54;;;;;;;22.30;14.65;;;8.50;75.90;;;;;;5014720;28;20026;-89
2021/03/15 10:38:21;;;;;;;23.20;15.48;;;8.60;73.60;;;;;;5012130;28;20022;-88
2021/03/15 10:40:48;;;;;;;22.17;14.55;;;8.60;74.40;;;;;;5011752;28;20381;-83
2021/03/15 10:43:22;;;;;;;22.40;14.52;;;8.60;73.10;;;;;;5011762;28;20650;-84
2021/03/15 10:45:49;;;;;;;20.52;13.90;;;8.40;72.80;;;;;;5012333;28;20045;-85
2021/03/15 10:48:15;;;;;;;21.52;13.85;;;8.60;73.20;;;;;;5014533;28;20477;-88
2021/03/15 10:50:44;;;;;;;23.98;14.48;;;8.70;73.80;;;;;;4999577;28;20026;-88
2021/03/15 10:53:24;;;;;;;22.60;14.80;;;8.60;72.30;;;;;;4993304;28;20064;-89
2021/03/15 10:55:51;;;;;;;20.55;13.88;;;8.60;72.60;;;;;;5012912;28;20026;-88
2021/03/15 10:58:18;;;;;;;20.25;13.68;;;8.60;73.50;;;;;;5011262;28;20083;-87
2021/03/15 11:00:46;;;;;;;21.77;14.40;;;8.30;73.90;;;;;;5002876;28;20072;-89
2021/03/15 11:03:27;;;;;;;19.85;13.80;;;8.40;74.50;;;;;;5001512;28;20039;-86
2021/03/15 11:06:08;;;;;;;;;;;8.60;74.50;;;;;;5012870;28;20030;-88
2021/03/15 11:08:34;;;;;;;;;;;8.80;74.40;;;;;;5013329;28;20048;-88
2021/03/15 11:11:32;;;;;;;19.73;13.52;;;9.00;72.10;;;;;;4995440;28;19910;-87
2021/03/15 11:14:00;;;;;;;16.63;12.07;;;9.10;71.40;;;;;;4950083;29;20082;-88
2021/03/15 11:16:28;;;;;;;19.77;12.93;;;8.90;70.70;;;;;;4952799;29;20175;-87
2021/03/15 11:19:09;;;;;;;17.33;11.93;;;8.90;70.30;;;;;;4953093;29;20422;-88
2021/03/15 11:21:37;;;;;;;17.50;10.95;;;8.70;71.00;;;;;;4953960;29;20503;-90
2021/03/15 11:24:04;;;;;;;18.92;12.25;;;8.50;70.90;;;;;;4953703;28;20114;-89
2021/03/15 11:26:43;;;;;;;19.15;12.13;;;8.40;71.40;;;;;;4938025;28;20487;-88
2021/03/15 11:29:08;;;;;;;17.20;12.82;;;8.60;71.90;;;;;;4952224;29;20043;-87
2021/03/15 11:31:34;;;;;;;16.90;10.70;;;8.60;71.80;;;;;;4948473;29;20027;-85
2021/03/15 11:34:00;;;;;;;15.05;9.52;;;8.70;71.60;;;;;;4951412;28;20419;-88
2021/03/15 11:36:29;;;;;;;14.70;9.40;;;8.90;69.30;;;;;;4951125;28;20185;-87
2021/03/15 11:39:02;;;;;;;19.23;10.18;;;9.00;69.30;;;;;;4946652;28;20046;-88
2021/03/15 11:41:32;;;;;;;17.25;10.10;;;9.10;68.80;;;;;;4948678;29;20384;-88
2021/03/15 11:43:58;;;;;;;14.02;9.52;;;9.20;68.70;;;;;;4952262;28;20031;-89
2021/03/15 11:46:24;;;;;;;14.63;8.40;;;9.10;67.10;;;;;;4950621;28;20463;-88
2021/03/15 11:48:49;;;;;;;14.93;9.48;;;9.00;68.10;;;;;;4963719;28;20063;-88
2021/03/15 11:51:17;;;;;;;15.45;9.20;;;9.00;67.60;;;;;;5006291;28;20018;-89
2021/03/15 11:53:43;;;;;;;14.77;9.30;;;9.20;68.00;;;;;;5012957;28;20029;-88
2021/03/15 11:56:09;;;;;;;17.98;9.13;;;9.20;67.70;;;;;;5006939;28;20025;-88
2021/03/15 11:58:36;;;;;;;15.52;9.00;;;9.20;66.60;;;;;;5009742;28;20033;-89
2021/03/15 12:01:06;;;;;;;19.98;8.50;;;9.30;67.00;;;;;;4995982;28;20396;-88
2021/03/15 12:03:31;;;;;;;11.93;7.72;;;9.20;67.00;;;;;;5011387;28;20412;-88
2021/03/15 12:05:58;;;;;;;15.63;8.02;;;9.20;66.20;;;;;;4999342;28;20117;-86
2021/03/15 12:08:24;;;;;;;14.23;8.30;;;9.40;66.40;;;;;;5011674;28;20504;-90
2021/03/15 12:10:50;;;;;;;15.45;7.30;;;9.40;65.70;;;;;;5013289;28;20033;-87
2021/03/15 12:13:15;;;;;;;13.35;7.97;;;9.20;65.60;;;;;;5012875;28;20495;-89
2021/03/15 12:15:41;;;;;;;10.98;6.80;;;9.30;66.10;;;;;;5011386;28;20055;-89
2021/03/15 12:18:08;;;;;;;11.52;8.05;;;9.30;64.70;;;;;;4995585;28;20133;-89
2021/03/15 12:20:34;;;;;;;13.52;8.45;;;9.20;66.00;;;;;;5013030;28;20127;-87
2021/03/15 12:23:00;;;;;;;14.30;8.00;;;9.20;66.30;;;;;;5012286;28;20033;-89
2021/03/15 12:25:26;;;;;;;10.02;7.35;;;9.20;66.00;;;;;;5012026;28;20119;-88
2021/03/15 12:27:55;;;;;;;13.38;7.47;;;9.30;66.30;;;;;;4993188;28;20395;-90
2021/03/15 12:30:22;;;;;;;11.13;6.93;;;9.40;67.00;;;;;;5010847;28;20030;-89
2021/03/15 12:32:49;;;;;;;11.73;7.47;;;9.50;66.10;;;;;;5011390;28;20037;-88
2021/03/15 12:35:15;;;;;;;15.35;7.47;;;9.50;65.60;;;;;;5011065;28;20038;-88
2021/03/15 12:37:41;;;;;;;12.50;7.20;;;9.40;65.10;;;;;;4992714;28;20037;-88
2021/03/15 12:40:07;;;;;;;11.38;6.28;;;9.60;65.80;;;;;;5008455;28;20034;-89
2021/03/15 12:42:33;;;;;;;12.75;6.45;;;9.70;64.60;;;;;;4991623;28;20103;-88
2021/03/15 12:44:59;;;;;;;11.60;6.95;;;9.70;65.30;;;;;;5008304;28;20485;-88
2021/03/15 12:47:25;;;;;;;11.38;6.70;;;9.70;64.90;;;;;;5010638;28;20033;-88
2021/03/15 12:49:51;;;;;;;12.55;6.57;;;9.80;65.20;;;;;;5009312;28;20033;-88
2021/03/15 12:52:17;;;;;;;11.65;6.70;;;9.80;65.10;;;;;;5006941;28;20692;-86
2021/03/15 12:54:43;;;;;;;13.50;6.60;;;9.90;64.00;;;;;;5019341;28;20057;-88
2021/03/15 12:57:08;;;;;;;10.95;6.28;;;9.90;64.30;;;;;;5011186;28;20061;-88